sensor_id;sensor_type;location;lat;lon;timestamp;P1;durP1;ratioP1;P2;durP2;ratioP2
3647;SDS011;1840;48.892;15.312;2023-07-24T00:00:36;14.03;;;6.87;;
3647;SDS011;1840;48.892;15.312;2023-07-24T00:03:06;11.50;;;6.80;;
3647;SDS011;1840;48.892;15.312;2023-07-24T00:05:36;11.43;;;6.70;;
3647;SDS011;1840;48.892;15.312;2023-07-24T00:08:04;14.23;;;7.00;;
3647;SDS011;1840;48.892;15.312;2023-07-24T00:10:31;12.20;;;6.73;;
3647;SDS011;1840;48.892;15.312;2023-07-24T00:12:59;12.37;;;6.77;;
3647;SDS011;1840;48.892;15.312;2023-07-24T00:15:29;10.53;;;5.63;;
3647;SDS011;1840;48.892;15.312;2023-07-24T00:17:57;12.00;;;6.50;;
3647;SDS011;1840;48.892;15.312;2023-07-24T00:20:25;15.10;;;6.90;;
3647;SDS011;1840;48.892;15.312;2023-07-24T00:22:55;12.80;;;7.53;;
3647;SDS011;1840;48.892;15.312;2023-07-24T00:25:23;12.63;;;7.40;;
3647;SDS011;1840;48.892;15.312;2023-07-24T00:27:51;12.77;;;6.87;;
3647;SDS011;1840;48.892;15.312;2023-07-24T00:30:19;14.27;;;7.40;;
3647;SDS011;1840;48.892;15.312;2023-07-24T00:32:47;20.20;;;6.47;;
3647;SDS011;1840;48.892;15.312;2023-07-24T00:35:15;11.53;;;6.37;;
3647;SDS011;1840;48.892;15.312;2023-07-24T00:37:43;13.40;;;7.00;;
3647;SDS011;1840;48.892;15.312;2023-07-24T00:40:13;14.87;;;7.50;;
3647;SDS011;1840;48.892;15.312;2023-07-24T00:42:45;14.10;;;7.30;;
3647;SDS011;1840;48.892;15.312;2023-07-24T00:45:14;13.27;;;7.47;;
3647;SDS011;1840;48.892;15.312;2023-07-24T00:47:42;12.53;;;7.10;;
3647;SDS011;1840;48.892;15.312;2023-07-24T00:50:11;13.67;;;7.57;;
3647;SDS011;1840;48.892;15.312;2023-07-24T00:52:40;14.20;;;7.03;;
3647;SDS011;1840;48.892;15.312;2023-07-24T00:55:10;13.17;;;7.03;;
3647;SDS011;1840;48.892;15.312;2023-07-24T00:57:41;11.87;;;7.20;;
3647;SDS011;1840;48.892;15.312;2023-07-24T01:00:10;15.77;;;7.47;;
3647;SDS011;1840;48.892;15.312;2023-07-24T01:02:38;14.47;;;7.23;;
3647;SDS011;1840;48.892;15.312;2023-07-24T01:05:07;13.50;;;8.03;;
3647;SDS011;1840;48.892;15.312;2023-07-24T01:07:36;15.87;;;7.67;;
3647;SDS011;1840;48.892;15.312;2023-07-24T01:10:04;12.87;;;7.27;;
3647;SDS011;1840;48.892;15.312;2023-07-24T01:12:35;13.07;;;7.03;;
3647;SDS011;1840;48.892;15.312;2023-07-24T01:15:13;14.47;;;7.77;;
3647;SDS011;1840;48.892;15.312;2023-07-24T01:17:48;15.07;;;7.43;;
3647;SDS011;1840;48.892;15.312;2023-07-24T01:20:22;18.87;;;6.80;;
3647;SDS011;1840;48.892;15.312;2023-07-24T01:22:57;14.07;;;7.93;;
3647;SDS011;1840;48.892;15.312;2023-07-24T01:25:35;11.97;;;7.50;;
3647;SDS011;1840;48.892;15.312;2023-07-24T01:28:07;18.97;;;7.77;;
3647;SDS011;1840;48.892;15.312;2023-07-24T01:30:35;20.60;;;8.40;;
3647;SDS011;1840;48.892;15.312;2023-07-24T01:33:03;17.30;;;7.60;;
3647;SDS011;1840;48.892;15.312;2023-07-24T01:35:31;13.27;;;7.37;;
3647;SDS011;1840;48.892;15.312;2023-07-24T01:38:00;13.20;;;7.10;;
3647;SDS011;1840;48.892;15.312;2023-07-24T01:40:30;11.87;;;6.60;;
3647;SDS011;1840;48.892;15.312;2023-07-24T01:42:58;13.63;;;7.80;;
3647;SDS011;1840;48.892;15.312;2023-07-24T01:45:28;16.90;;;8.17;;
3647;SDS011;1840;48.892;15.312;2023-07-24T01:47:56;13.03;;;7.70;;
3647;SDS011;1840;48.892;15.312;2023-07-24T01:50:24;13.10;;;7.17;;
3647;SDS011;1840;48.892;15.312;2023-07-24T01:52:52;13.07;;;7.20;;
3647;SDS011;1840;48.892;15.312;2023-07-24T01:55:20;13.53;;;7.43;;
3647;SDS011;1840;48.892;15.312;2023-07-24T01:57:48;11.77;;;6.53;;
3647;SDS011;1840;48.892;15.312;2023-07-24T02:00:16;16.70;;;7.67;;
3647;SDS011;1840;48.892;15.312;2023-07-24T02:02:45;15.03;;;8.30;;
3647;SDS011;1840;48.892;15.312;2023-07-24T02:05:13;25.37;;;8.93;;
3647;SDS011;1840;48.892;15.312;2023-07-24T02:07:42;15.00;;;7.50;;
3647;SDS011;1840;48.892;15.312;2023-07-24T02:10:10;14.03;;;7.70;;
3647;SDS011;1840;48.892;15.312;2023-07-24T02:12:38;12.10;;;6.73;;
3647;SDS011;1840;48.892;15.312;2023-07-24T02:15:06;13.07;;;6.47;;
3647;SDS011;1840;48.892;15.312;2023-07-24T02:17:34;12.60;;;6.90;;
3647;SDS011;1840;48.892;15.312;2023-07-24T02:20:05;12.50;;;7.13;;
3647;SDS011;1840;48.892;15.312;2023-07-24T02:22:34;12.93;;;7.43;;
3647;SDS011;1840;48.892;15.312;2023-07-24T02:25:02;11.27;;;7.03;;
3647;SDS011;1840;48.892;15.312;2023-07-24T02:27:31;18.87;;;8.40;;
3647;SDS011;1840;48.892;15.312;2023-07-24T02:30:01;20.40;;;9.57;;
3647;SDS011;1840;48.892;15.312;2023-07-24T02:32:29;23.93;;;9.43;;
3647;SDS011;1840;48.892;15.312;2023-07-24T02:34:58;15.87;;;8.87;;
3647;SDS011;1840;48.892;15.312;2023-07-24T02:37:28;18.13;;;7.97;;
3647;SDS011;1840;48.892;15.312;2023-07-24T02:39:56;15.40;;;7.33;;
3647;SDS011;1840;48.892;15.312;2023-07-24T02:42:24;14.93;;;6.90;;
3647;SDS011;1840;48.892;15.312;2023-07-24T02:44:52;15.30;;;8.10;;
3647;SDS011;1840;48.892;15.312;2023-07-24T02:47:20;14.67;;;7.93;;
3647;SDS011;1840;48.892;15.312;2023-07-24T02:49:48;17.57;;;8.80;;
3647;SDS011;1840;48.892;15.312;2023-07-24T02:52:16;13.80;;;6.90;;
3647;SDS011;1840;48.892;15.312;2023-07-24T02:54:46;21.40;;;8.70;;
3647;SDS011;1840;48.892;15.312;2023-07-24T02:57:14;17.17;;;8.43;;
3647;SDS011;1840;48.892;15.312;2023-07-24T02:59:41;13.13;;;7.27;;
3647;SDS011;1840;48.892;15.312;2023-07-24T03:02:09;19.07;;;7.00;;
3647;SDS011;1840;48.892;15.312;2023-07-24T03:04:37;14.57;;;7.13;;
3647;SDS011;1840;48.892;15.312;2023-07-24T03:07:05;14.73;;;7.73;;
3647;SDS011;1840;48.892;15.312;2023-07-24T03:09:33;14.10;;;7.17;;
3647;SDS011;1840;48.892;15.312;2023-07-24T03:12:03;18.60;;;7.30;;
3647;SDS011;1840;48.892;15.312;2023-07-24T03:14:31;28.83;;;8.33;;
3647;SDS011;1840;48.892;15.312;2023-07-24T03:16:59;14.20;;;7.67;;
3647;SDS011;1840;48.892;15.312;2023-07-24T03:19:29;19.03;;;7.33;;
3647;SDS011;1840;48.892;15.312;2023-07-24T03:21:57;17.90;;;8.20;;
3647;SDS011;1840;48.892;15.312;2023-07-24T03:24:24;20.23;;;7.87;;
3647;SDS011;1840;48.892;15.312;2023-07-24T03:26:54;13.27;;;7.70;;
3647;SDS011;1840;48.892;15.312;2023-07-24T03:29:23;17.87;;;8.50;;
3647;SDS011;1840;48.892;15.312;2023-07-24T03:31:51;13.27;;;8.10;;
3647;SDS011;1840;48.892;15.312;2023-07-24T03:34:19;20.60;;;9.30;;
3647;SDS011;1840;48.892;15.312;2023-07-24T03:36:47;13.07;;;7.80;;
3647;SDS011;1840;48.892;15.312;2023-07-24T03:39:15;16.57;;;8.50;;
3647;SDS011;1840;48.892;15.312;2023-07-24T03:41:43;15.70;;;8.30;;
3647;SDS011;1840;48.892;15.312;2023-07-24T03:44:11;17.33;;;7.83;;
3647;SDS011;1840;48.892;15.312;2023-07-24T03:46:41;16.77;;;7.57;;
3647;SDS011;1840;48.892;15.312;2023-07-24T03:49:09;12.13;;;7.00;;
3647;SDS011;1840;48.892;15.312;2023-07-24T03:51:37;22.07;;;8.53;;
3647;SDS011;1840;48.892;15.312;2023-07-24T03:54:05;16.60;;;6.83;;
3647;SDS011;1840;48.892;15.312;2023-07-24T03:56:33;21.80;;;8.23;;
3647;SDS011;1840;48.892;15.312;2023-07-24T03:59:01;13.93;;;8.43;;
3647;SDS011;1840;48.892;15.312;2023-07-24T04:01:29;11.73;;;6.67;;
3647;SDS011;1840;48.892;15.312;2023-07-24T04:03:58;11.97;;;7.27;;
3647;SDS011;1840;48.892;15.312;2023-07-24T04:06:26;15.90;;;7.93;;
3647;SDS011;1840;48.892;15.312;2023-07-24T04:08:57;12.87;;;7.47;;
3647;SDS011;1840;48.892;15.312;2023-07-24T04:11:25;17.97;;;8.00;;
3647;SDS011;1840;48.892;15.312;2023-07-24T04:13:53;18.40;;;8.70;;
3647;SDS011;1840;48.892;15.312;2023-07-24T04:16:21;14.20;;;7.50;;
3647;SDS011;1840;48.892;15.312;2023-07-24T04:18:52;12.13;;;6.70;;
3647;SDS011;1840;48.892;15.312;2023-07-24T04:21:22;15.67;;;8.80;;
3647;SDS011;1840;48.892;15.312;2023-07-24T04:23:50;15.03;;;8.20;;
3647;SDS011;1840;48.892;15.312;2023-07-24T04:26:18;33.60;;;11.80;;
3647;SDS011;1840;48.892;15.312;2023-07-24T04:28:46;17.00;;;8.00;;
3647;SDS011;1840;48.892;15.312;2023-07-24T04:31:14;22.13;;;9.57;;
3647;SDS011;1840;48.892;15.312;2023-07-24T04:33:42;15.07;;;8.50;;
3647;SDS011;1840;48.892;15.312;2023-07-24T04:36:10;15.53;;;8.10;;
3647;SDS011;1840;48.892;15.312;2023-07-24T04:38:44;22.27;;;9.60;;
3647;SDS011;1840;48.892;15.312;2023-07-24T04:41:13;16.60;;;9.30;;
3647;SDS011;1840;48.892;15.312;2023-07-24T04:43:41;19.57;;;9.80;;
3647;SDS011;1840;48.892;15.312;2023-07-24T04:46:09;17.53;;;9.73;;
3647;SDS011;1840;48.892;15.312;2023-07-24T04:48:37;14.70;;;8.60;;
3647;SDS011;1840;48.892;15.312;2023-07-24T04:51:05;17.63;;;8.73;;
3647;SDS011;1840;48.892;15.312;2023-07-24T04:53:33;19.00;;;9.07;;
3647;SDS011;1840;48.892;15.312;2023-07-24T04:56:03;13.97;;;8.70;;
3647;SDS011;1840;48.892;15.312;2023-07-24T04:58:31;12.77;;;7.77;;
3647;SDS011;1840;48.892;15.312;2023-07-24T05:01:01;14.77;;;8.53;;
3647;SDS011;1840;48.892;15.312;2023-07-24T05:03:30;22.13;;;10.10;;
3647;SDS011;1840;48.892;15.312;2023-07-24T05:05:58;16.23;;;8.40;;
3647;SDS011;1840;48.892;15.312;2023-07-24T05:08:26;16.87;;;8.47;;
3647;SDS011;1840;48.892;15.312;2023-07-24T05:10:54;17.33;;;9.97;;
3647;SDS011;1840;48.892;15.312;2023-07-24T05:13:24;19.30;;;10.30;;
3647;SDS011;1840;48.892;15.312;2023-07-24T05:15:53;18.50;;;8.70;;
3647;SDS011;1840;48.892;15.312;2023-07-24T05:18:21;17.13;;;9.10;;
3647;SDS011;1840;48.892;15.312;2023-07-24T05:20:49;21.30;;;10.30;;
3647;SDS011;1840;48.892;15.312;2023-07-24T05:23:18;16.83;;;9.67;;
3647;SDS011;1840;48.892;15.312;2023-07-24T05:25:46;19.40;;;10.13;;
3647;SDS011;1840;48.892;15.312;2023-07-24T05:28:14;15.97;;;10.20;;
3647;SDS011;1840;48.892;15.312;2023-07-24T05:30:44;19.00;;;10.63;;
3647;SDS011;1840;48.892;15.312;2023-07-24T05:33:12;24.93;;;10.43;;
3647;SDS011;1840;48.892;15.312;2023-07-24T05:35:40;23.50;;;10.90;;
3647;SDS011;1840;48.892;15.312;2023-07-24T05:38:09;16.20;;;9.50;;
3647;SDS011;1840;48.892;15.312;2023-07-24T05:40:37;19.57;;;9.70;;
3647;SDS011;1840;48.892;15.312;2023-07-24T05:43:06;20.10;;;10.50;;
3647;SDS011;1840;48.892;15.312;2023-07-24T05:45:34;17.57;;;9.43;;
3647;SDS011;1840;48.892;15.312;2023-07-24T05:48:03;22.30;;;9.13;;
3647;SDS011;1840;48.892;15.312;2023-07-24T05:50:32;16.20;;;9.47;;
3647;SDS011;1840;48.892;15.312;2023-07-24T05:53:00;20.03;;;8.80;;
3647;SDS011;1840;48.892;15.312;2023-07-24T05:55:28;16.97;;;9.70;;
3647;SDS011;1840;48.892;15.312;2023-07-24T05:57:56;19.23;;;10.40;;
3647;SDS011;1840;48.892;15.312;2023-07-24T06:00:24;17.13;;;9.30;;
3647;SDS011;1840;48.892;15.312;2023-07-24T06:02:52;17.50;;;8.93;;
3647;SDS011;1840;48.892;15.312;2023-07-24T06:05:24;18.07;;;9.30;;
3647;SDS011;1840;48.892;15.312;2023-07-24T06:07:52;17.43;;;9.60;;
3647;SDS011;1840;48.892;15.312;2023-07-24T06:10:20;17.50;;;9.40;;
3647;SDS011;1840;48.892;15.312;2023-07-24T06:12:49;19.17;;;9.73;;
3647;SDS011;1840;48.892;15.312;2023-07-24T06:15:17;21.43;;;9.60;;
3647;SDS011;1840;48.892;15.312;2023-07-24T06:17:45;24.43;;;10.93;;
3647;SDS011;1840;48.892;15.312;2023-07-24T06:20:15;18.00;;;9.10;;
3647;SDS011;1840;48.892;15.312;2023-07-24T06:22:44;20.73;;;10.07;;
3647;SDS011;1840;48.892;15.312;2023-07-24T06:25:12;19.50;;;8.87;;
3647;SDS011;1840;48.892;15.312;2023-07-24T06:27:40;22.60;;;10.10;;
3647;SDS011;1840;48.892;15.312;2023-07-24T06:30:08;18.53;;;9.57;;
3647;SDS011;1840;48.892;15.312;2023-07-24T06:32:42;16.97;;;9.60;;
3647;SDS011;1840;48.892;15.312;2023-07-24T06:35:10;28.40;;;10.97;;
3647;SDS011;1840;48.892;15.312;2023-07-24T06:37:38;20.70;;;9.80;;
3647;SDS011;1840;48.892;15.312;2023-07-24T06:40:08;27.53;;;11.20;;
3647;SDS011;1840;48.892;15.312;2023-07-24T06:42:36;21.43;;;10.10;;
3647;SDS011;1840;48.892;15.312;2023-07-24T06:45:05;14.70;;;8.93;;
3647;SDS011;1840;48.892;15.312;2023-07-24T06:47:34;18.27;;;9.83;;
3647;SDS011;1840;48.892;15.312;2023-07-24T06:50:02;14.33;;;7.93;;
3647;SDS011;1840;48.892;15.312;2023-07-24T06:52:31;17.80;;;9.20;;
3647;SDS011;1840;48.892;15.312;2023-07-24T06:54:59;17.60;;;9.20;;
3647;SDS011;1840;48.892;15.312;2023-07-24T06:57:28;19.33;;;9.30;;
3647;SDS011;1840;48.892;15.312;2023-07-24T06:59:56;18.60;;;8.77;;
3647;SDS011;1840;48.892;15.312;2023-07-24T07:02:24;20.00;;;9.30;;
3647;SDS011;1840;48.892;15.312;2023-07-24T07:04:54;18.00;;;9.67;;
3647;SDS011;1840;48.892;15.312;2023-07-24T07:07:23;27.27;;;8.40;;
3647;SDS011;1840;48.892;15.312;2023-07-24T07:09:51;18.20;;;9.60;;
3647;SDS011;1840;48.892;15.312;2023-07-24T07:12:19;18.37;;;9.20;;
3647;SDS011;1840;48.892;15.312;2023-07-24T07:14:49;18.27;;;9.67;;
3647;SDS011;1840;48.892;15.312;2023-07-24T07:17:17;16.83;;;8.57;;
3647;SDS011;1840;48.892;15.312;2023-07-24T07:19:45;17.40;;;9.80;;
3647;SDS011;1840;48.892;15.312;2023-07-24T07:22:13;16.63;;;8.90;;
3647;SDS011;1840;48.892;15.312;2023-07-24T07:24:41;17.33;;;8.97;;
3647;SDS011;1840;48.892;15.312;2023-07-24T07:27:10;16.10;;;8.93;;
3647;SDS011;1840;48.892;15.312;2023-07-24T07:29:38;18.07;;;9.47;;
3647;SDS011;1840;48.892;15.312;2023-07-24T07:32:08;17.00;;;9.20;;
3647;SDS011;1840;48.892;15.312;2023-07-24T07:34:36;19.00;;;9.50;;
3647;SDS011;1840;48.892;15.312;2023-07-24T07:37:05;17.17;;;9.67;;
3647;SDS011;1840;48.892;15.312;2023-07-24T07:39:33;18.03;;;10.07;;
3647;SDS011;1840;48.892;15.312;2023-07-24T07:42:01;17.00;;;9.70;;
3647;SDS011;1840;48.892;15.312;2023-07-24T07:44:43;16.37;;;10.13;;
3647;SDS011;1840;48.892;15.312;2023-07-24T07:47:13;16.53;;;8.87;;
3647;SDS011;1840;48.892;15.312;2023-07-24T07:49:41;24.47;;;10.40;;
3647;SDS011;1840;48.892;15.312;2023-07-24T07:52:09;37.33;;;10.67;;
3647;SDS011;1840;48.892;15.312;2023-07-24T07:54:37;16.80;;;9.00;;
3647;SDS011;1840;48.892;15.312;2023-07-24T07:57:05;18.33;;;9.80;;
3647;SDS011;1840;48.892;15.312;2023-07-24T07:59:33;18.07;;;9.20;;
3647;SDS011;1840;48.892;15.312;2023-07-24T08:02:02;15.60;;;8.60;;
3647;SDS011;1840;48.892;15.312;2023-07-24T08:04:32;23.97;;;9.90;;
3647;SDS011;1840;48.892;15.312;2023-07-24T08:07:00;20.40;;;9.80;;
3647;SDS011;1840;48.892;15.312;2023-07-24T08:09:28;20.40;;;9.73;;
3647;SDS011;1840;48.892;15.312;2023-07-24T08:11:56;39.33;;;11.30;;
3647;SDS011;1840;48.892;15.312;2023-07-24T08:14:24;27.80;;;10.30;;
3647;SDS011;1840;48.892;15.312;2023-07-24T08:16:53;18.57;;;8.77;;
3647;SDS011;1840;48.892;15.312;2023-07-24T08:19:21;20.57;;;8.50;;
3647;SDS011;1840;48.892;15.312;2023-07-24T08:21:51;15.97;;;9.23;;
3647;SDS011;1840;48.892;15.312;2023-07-24T08:24:19;23.57;;;9.30;;
3647;SDS011;1840;48.892;15.312;2023-07-24T08:26:47;13.80;;;8.33;;
3647;SDS011;1840;48.892;15.312;2023-07-24T08:29:15;15.87;;;9.50;;
3647;SDS011;1840;48.892;15.312;2023-07-24T08:31:43;16.17;;;9.20;;
3647;SDS011;1840;48.892;15.312;2023-07-24T08:34:11;14.40;;;9.00;;
3647;SDS011;1840;48.892;15.312;2023-07-24T08:36:39;16.10;;;9.07;;
3647;SDS011;1840;48.892;15.312;2023-07-24T08:39:09;16.23;;;9.73;;
3647;SDS011;1840;48.892;15.312;2023-07-24T08:41:37;15.47;;;8.97;;
3647;SDS011;1840;48.892;15.312;2023-07-24T08:44:06;16.00;;;8.83;;
3647;SDS011;1840;48.892;15.312;2023-07-24T08:46:35;16.90;;;9.43;;
3647;SDS011;1840;48.892;15.312;2023-07-24T08:49:04;18.03;;;8.80;;
3647;SDS011;1840;48.892;15.312;2023-07-24T08:51:33;16.60;;;8.90;;
3647;SDS011;1840;48.892;15.312;2023-07-24T08:54:03;21.13;;;8.20;;
3647;SDS011;1840;48.892;15.312;2023-07-24T08:56:37;16.03;;;8.13;;
3647;SDS011;1840;48.892;15.312;2023-07-24T08:59:06;16.90;;;9.53;;
3647;SDS011;1840;48.892;15.312;2023-07-24T09:01:34;17.67;;;9.80;;
3647;SDS011;1840;48.892;15.312;2023-07-24T09:04:03;15.77;;;8.67;;
3647;SDS011;1840;48.892;15.312;2023-07-24T09:06:31;15.63;;;8.57;;
3647;SDS011;1840;48.892;15.312;2023-07-24T09:08:59;17.53;;;8.77;;
3647;SDS011;1840;48.892;15.312;2023-07-24T09:11:28;14.90;;;8.23;;
3647;SDS011;1840;48.892;15.312;2023-07-24T09:13:57;16.90;;;8.83;;
3647;SDS011;1840;48.892;15.312;2023-07-24T09:16:26;14.10;;;8.23;;
3647;SDS011;1840;48.892;15.312;2023-07-24T09:18:55;18.50;;;9.43;;
3647;SDS011;1840;48.892;15.312;2023-07-24T09:21:36;18.57;;;8.80;;
3647;SDS011;1840;48.892;15.312;2023-07-24T09:24:11;19.70;;;9.70;;
3647;SDS011;1840;48.892;15.312;2023-07-24T09:26:46;15.47;;;8.77;;
3647;SDS011;1840;48.892;15.312;2023-07-24T09:29:29;18.00;;;9.60;;
3647;SDS011;1840;48.892;15.312;2023-07-24T09:31:58;19.60;;;8.67;;
3647;SDS011;1840;48.892;15.312;2023-07-24T09:34:26;13.57;;;8.63;;
3647;SDS011;1840;48.892;15.312;2023-07-24T09:36:54;20.30;;;9.47;;
3647;SDS011;1840;48.892;15.312;2023-07-24T09:39:23;15.10;;;9.50;;
3647;SDS011;1840;48.892;15.312;2023-07-24T09:41:51;15.37;;;9.20;;
3647;SDS011;1840;48.892;15.312;2023-07-24T09:44:21;15.70;;;9.43;;
3647;SDS011;1840;48.892;15.312;2023-07-24T09:46:54;22.27;;;10.20;;
3647;SDS011;1840;48.892;15.312;2023-07-24T09:49:24;15.17;;;8.47;;
3647;SDS011;1840;48.892;15.312;2023-07-24T09:51:55;15.63;;;8.80;;
3647;SDS011;1840;48.892;15.312;2023-07-24T09:54:28;14.87;;;8.77;;
3647;SDS011;1840;48.892;15.312;2023-07-24T09:56:59;18.63;;;10.10;;
3647;SDS011;1840;48.892;15.312;2023-07-24T09:59:47;15.90;;;9.27;;
3647;SDS011;1840;48.892;15.312;2023-07-24T10:02:18;17.43;;;8.90;;
3647;SDS011;1840;48.892;15.312;2023-07-24T10:04:46;14.67;;;8.93;;
3647;SDS011;1840;48.892;15.312;2023-07-24T10:07:15;13.43;;;8.73;;
3647;SDS011;1840;48.892;15.312;2023-07-24T10:09:48;12.23;;;8.13;;
3647;SDS011;1840;48.892;15.312;2023-07-24T10:12:17;21.00;;;8.60;;
3647;SDS011;1840;48.892;15.312;2023-07-24T10:14:46;13.90;;;7.80;;
3647;SDS011;1840;48.892;15.312;2023-07-24T10:17:24;14.97;;;7.97;;
3647;SDS011;1840;48.892;15.312;2023-07-24T10:20:03;20.90;;;8.67;;
3647;SDS011;1840;48.892;15.312;2023-07-24T10:22:33;14.23;;;8.93;;
3647;SDS011;1840;48.892;15.312;2023-07-24T10:25:01;13.97;;;8.47;;
3647;SDS011;1840;48.892;15.312;2023-07-24T10:27:29;12.40;;;8.00;;
3647;SDS011;1840;48.892;15.312;2023-07-24T10:29:58;15.10;;;8.33;;
3647;SDS011;1840;48.892;15.312;2023-07-24T10:32:30;12.33;;;7.80;;
3647;SDS011;1840;48.892;15.312;2023-07-24T10:35:07;13.53;;;7.77;;
3647;SDS011;1840;48.892;15.312;2023-07-24T10:37:36;18.67;;;10.40;;
3647;SDS011;1840;48.892;15.312;2023-07-24T10:40:05;13.63;;;8.90;;
3647;SDS011;1840;48.892;15.312;2023-07-24T10:42:45;15.90;;;8.73;;
3647;SDS011;1840;48.892;15.312;2023-07-24T10:45:13;14.93;;;8.53;;
3647;SDS011;1840;48.892;15.312;2023-07-24T10:47:41;16.60;;;8.80;;
3647;SDS011;1840;48.892;15.312;2023-07-24T10:50:11;15.33;;;8.60;;
3647;SDS011;1840;48.892;15.312;2023-07-24T10:52:39;13.73;;;8.63;;
3647;SDS011;1840;48.892;15.312;2023-07-24T10:55:07;15.17;;;9.40;;
3647;SDS011;1840;48.892;15.312;2023-07-24T10:57:35;19.03;;;9.43;;
3647;SDS011;1840;48.892;15.312;2023-07-24T11:00:04;14.03;;;8.83;;
3647;SDS011;1840;48.892;15.312;2023-07-24T11:02:33;16.60;;;10.50;;
3647;SDS011;1840;48.892;15.312;2023-07-24T11:05:01;15.70;;;9.50;;
3647;SDS011;1840;48.892;15.312;2023-07-24T11:07:33;18.90;;;9.70;;
3647;SDS011;1840;48.892;15.312;2023-07-24T11:10:01;13.63;;;9.17;;
3647;SDS011;1840;48.892;15.312;2023-07-24T11:12:29;14.20;;;9.10;;
3647;SDS011;1840;48.892;15.312;2023-07-24T11:14:58;17.80;;;9.90;;
3647;SDS011;1840;48.892;15.312;2023-07-24T11:17:33;14.63;;;8.67;;
3647;SDS011;1840;48.892;15.312;2023-07-24T11:20:08;16.43;;;9.13;;
3647;SDS011;1840;48.892;15.312;2023-07-24T11:22:40;17.43;;;9.50;;
3647;SDS011;1840;48.892;15.312;2023-07-24T11:25:10;21.33;;;9.20;;
3647;SDS011;1840;48.892;15.312;2023-07-24T11:27:39;25.20;;;10.50;;
3647;SDS011;1840;48.892;15.312;2023-07-24T11:30:09;22.60;;;10.50;;
3647;SDS011;1840;48.892;15.312;2023-07-24T11:32:38;22.67;;;10.43;;
3647;SDS011;1840;48.892;15.312;2023-07-24T11:35:08;22.63;;;10.97;;
3647;SDS011;1840;48.892;15.312;2023-07-24T11:37:36;17.03;;;9.60;;
3647;SDS011;1840;48.892;15.312;2023-07-24T11:40:06;27.17;;;9.87;;
3647;SDS011;1840;48.892;15.312;2023-07-24T11:42:37;16.10;;;8.70;;
3647;SDS011;1840;48.892;15.312;2023-07-24T11:45:06;21.40;;;9.30;;
3647;SDS011;1840;48.892;15.312;2023-07-24T11:47:43;17.90;;;9.17;;
3647;SDS011;1840;48.892;15.312;2023-07-24T11:50:12;18.73;;;9.77;;
3647;SDS011;1840;48.892;15.312;2023-07-24T11:52:42;16.37;;;9.50;;
3647;SDS011;1840;48.892;15.312;2023-07-24T11:55:12;19.70;;;10.60;;
3647;SDS011;1840;48.892;15.312;2023-07-24T11:57:42;17.03;;;9.80;;
3647;SDS011;1840;48.892;15.312;2023-07-24T12:00:17;17.13;;;9.93;;
3647;SDS011;1840;48.892;15.312;2023-07-24T12:02:46;17.80;;;10.00;;
3647;SDS011;1840;48.892;15.312;2023-07-24T12:05:14;16.67;;;9.47;;
3647;SDS011;1840;48.892;15.312;2023-07-24T12:07:43;17.80;;;9.40;;
3647;SDS011;1840;48.892;15.312;2023-07-24T12:10:24;17.70;;;9.70;;
3647;SDS011;1840;48.892;15.312;2023-07-24T12:12:53;21.10;;;9.60;;
3647;SDS011;1840;48.892;15.312;2023-07-24T12:15:22;14.43;;;9.00;;
3647;SDS011;1840;48.892;15.312;2023-07-24T12:17:50;17.30;;;10.43;;
3647;SDS011;1840;48.892;15.312;2023-07-24T12:20:18;24.93;;;10.17;;
3647;SDS011;1840;48.892;15.312;2023-07-24T12:22:46;14.47;;;9.20;;
3647;SDS011;1840;48.892;15.312;2023-07-24T12:25:16;15.57;;;9.37;;
3647;SDS011;1840;48.892;15.312;2023-07-24T12:27:46;19.20;;;10.17;;
3647;SDS011;1840;48.892;15.312;2023-07-24T12:30:14;14.73;;;8.33;;
3647;SDS011;1840;48.892;15.312;2023-07-24T12:32:42;18.67;;;9.40;;
3647;SDS011;1840;48.892;15.312;2023-07-24T12:35:10;16.53;;;8.97;;
3647;SDS011;1840;48.892;15.312;2023-07-24T12:37:42;15.47;;;8.90;;
3647;SDS011;1840;48.892;15.312;2023-07-24T12:40:10;16.37;;;8.70;;
3647;SDS011;1840;48.892;15.312;2023-07-24T12:42:40;15.07;;;9.43;;
3647;SDS011;1840;48.892;15.312;2023-07-24T12:45:08;16.13;;;9.37;;
3647;SDS011;1840;48.892;15.312;2023-07-24T12:47:37;21.70;;;9.57;;
3647;SDS011;1840;48.892;15.312;2023-07-24T12:50:05;26.60;;;11.57;;
3647;SDS011;1840;48.892;15.312;2023-07-24T12:52:34;14.80;;;8.70;;
3647;SDS011;1840;48.892;15.312;2023-07-24T12:55:03;17.47;;;9.13;;
3647;SDS011;1840;48.892;15.312;2023-07-24T12:57:31;15.60;;;9.30;;
3647;SDS011;1840;48.892;15.312;2023-07-24T13:00:01;15.13;;;9.40;;
3647;SDS011;1840;48.892;15.312;2023-07-24T13:02:31;16.90;;;9.77;;
3647;SDS011;1840;48.892;15.312;2023-07-24T13:04:59;14.50;;;8.00;;
3647;SDS011;1840;48.892;15.312;2023-07-24T13:07:27;12.80;;;8.73;;
3647;SDS011;1840;48.892;15.312;2023-07-24T13:09:55;12.63;;;8.33;;
3647;SDS011;1840;48.892;15.312;2023-07-24T13:12:23;25.87;;;9.60;;
3647;SDS011;1840;48.892;15.312;2023-07-24T13:14:52;10.97;;;7.50;;
3647;SDS011;1840;48.892;15.312;2023-07-24T13:17:21;11.97;;;8.10;;
3647;SDS011;1840;48.892;15.312;2023-07-24T13:19:49;13.10;;;7.63;;
3647;SDS011;1840;48.892;15.312;2023-07-24T13:22:17;14.30;;;8.93;;
3647;SDS011;1840;48.892;15.312;2023-07-24T13:24:45;14.63;;;8.37;;
3647;SDS011;1840;48.892;15.312;2023-07-24T13:27:13;20.93;;;8.10;;
3647;SDS011;1840;48.892;15.312;2023-07-24T13:29:41;15.93;;;8.57;;
3647;SDS011;1840;48.892;15.312;2023-07-24T13:32:09;13.57;;;8.23;;
3647;SDS011;1840;48.892;15.312;2023-07-24T13:34:39;13.83;;;8.20;;
3647;SDS011;1840;48.892;15.312;2023-07-24T13:37:07;13.43;;;7.70;;
3647;SDS011;1840;48.892;15.312;2023-07-24T13:39:35;14.40;;;8.43;;
3647;SDS011;1840;48.892;15.312;2023-07-24T13:42:03;13.97;;;8.07;;
3647;SDS011;1840;48.892;15.312;2023-07-24T13:44:32;19.50;;;8.10;;
3647;SDS011;1840;48.892;15.312;2023-07-24T13:47:00;15.30;;;8.27;;
3647;SDS011;1840;48.892;15.312;2023-07-24T13:49:28;14.40;;;7.37;;
3647;SDS011;1840;48.892;15.312;2023-07-24T13:51:57;12.47;;;7.10;;
3647;SDS011;1840;48.892;15.312;2023-07-24T13:54:25;20.70;;;8.67;;
3647;SDS011;1840;48.892;15.312;2023-07-24T13:56:53;14.00;;;8.93;;
3647;SDS011;1840;48.892;15.312;2023-07-24T13:59:21;12.00;;;7.60;;
3647;SDS011;1840;48.892;15.312;2023-07-24T14:01:49;57.43;;;9.57;;
3647;SDS011;1840;48.892;15.312;2023-07-24T14:04:17;20.97;;;7.63;;
3647;SDS011;1840;48.892;15.312;2023-07-24T14:06:46;14.03;;;8.10;;
3647;SDS011;1840;48.892;15.312;2023-07-24T14:09:15;16.67;;;8.57;;
3647;SDS011;1840;48.892;15.312;2023-07-24T14:11:43;13.37;;;8.13;;
3647;SDS011;1840;48.892;15.312;2023-07-24T14:14:11;13.00;;;7.70;;
3647;SDS011;1840;48.892;15.312;2023-07-24T14:16:39;12.80;;;7.83;;
3647;SDS011;1840;48.892;15.312;2023-07-24T14:19:08;13.47;;;8.40;;
3647;SDS011;1840;48.892;15.312;2023-07-24T14:21:36;18.33;;;8.53;;
3647;SDS011;1840;48.892;15.312;2023-07-24T14:24:04;12.60;;;7.83;;
3647;SDS011;1840;48.892;15.312;2023-07-24T14:26:34;15.70;;;8.83;;
3647;SDS011;1840;48.892;15.312;2023-07-24T14:29:03;12.73;;;6.93;;
3647;SDS011;1840;48.892;15.312;2023-07-24T14:31:31;14.40;;;7.70;;
3647;SDS011;1840;48.892;15.312;2023-07-24T14:33:59;16.43;;;8.33;;
3647;SDS011;1840;48.892;15.312;2023-07-24T14:36:28;13.30;;;7.90;;
3647;SDS011;1840;48.892;15.312;2023-07-24T14:39:00;12.30;;;7.80;;
3647;SDS011;1840;48.892;15.312;2023-07-24T14:41:28;14.80;;;8.03;;
3647;SDS011;1840;48.892;15.312;2023-07-24T14:43:58;12.50;;;8.20;;
3647;SDS011;1840;48.892;15.312;2023-07-24T14:46:26;14.23;;;9.20;;
3647;SDS011;1840;48.892;15.312;2023-07-24T14:48:54;12.70;;;7.50;;
3647;SDS011;1840;48.892;15.312;2023-07-24T14:51:23;14.43;;;7.70;;
3647;SDS011;1840;48.892;15.312;2023-07-24T14:53:52;13.23;;;7.67;;
3647;SDS011;1840;48.892;15.312;2023-07-24T14:56:20;12.57;;;7.20;;